Hopkinton, MA

2:33 AM EST on December 25, 2014 (GMT -0500)
Norwood Memorial | Change Station
CLOSE
Current Station
Airport
Location: Norwood,
Elevation: 49 ft
Nearby Weather Stations

Elev 49 ft 42.19 °N, 71.17 °W | Updated 40 minutes ago

Overcast
Overcast
62 °F
Feels Like 62 °F
N
8
Wind Variable Wind from South

Today
High -- | Low -- °F
--% Chance of Precip.
Yesterday
High -- | Low -- °F
Precip. -- in
7:13 AM 4:19 PM
Waxing Crescent, 14% visible
Pressure 29.54 in
Visibility 10.0 miles
Clouds Overcast 1100 ft
Dew Point 60 °F
Humidity 93%
Rainfall 0.00 in
Snow Depth Not available.
UV 0 out of 12
Pollen .10 out of 12
Air Quality Not available.
Flu Activity Not available.
METAR KOWD 250653Z AUTO 19007KT 10SM OVC011 17/16 A2954 RMK AO2 SLP001 T01670156

More Conditions Fewer Conditions

Pressure 29.54 in
Visibility 10.0 miles
Clouds Overcast 1100 ft
Dew Point 60 °F
Humidity 93%
Rainfall 0.00 in
Snow Depth Not available.
UV 0 out of 12
Pollen .10 out of 12
Air Quality Not available.
Flu Activity Not available.
METAR KOWD 250653Z AUTO 19007KT 10SM OVC011 17/16 A2954 RMK AO2 SLP001 T01670156

More Conditions Fewer Conditions

10-Day Weather Forecast

Almanac

Astronomy

Dec. 25, 2014 Rise Set
Actual Time
Civil Twilight
Nautical Twilight
Astronomical Twilight
Moon
Length of Visible Light
Length of Day
Tomorrow will be .
, % of the Moon is Illuminated

Today's Extremes

State Highs State Lows

Community

WunderPhotos

Upload Photos

1,780,250 photos uploaded!

WunderBlogs® & News

Nearby

Air Quality

  Air Quality AQ Index Pollutant
Not available.

Snow Depth

Station Depth Elevation

Earthquake Activity

City Distance Mag. Time & Date
Minimum magnitude displayed is 2.5.

Coastal Water Temperatures

Place Temperature

Nearby Weather Stations